Time;durP1;ratioP1;P1;durP2;ratioP2;P2;SDS_P1;SDS_P2;PMS_P1;PMS_P2;Temp;Humidity;BMP_temperature;BMP_pressure;BME280_temperature;BME280_humidity;BME280_pressure;Samples;Min_cycle;Max_cycle;Signal;HPM_P1;HPM_P2
2023/01/31 00:01:12;;;;;;;25.90;4.93;;;;;;;1.01;100.00;102455.19;5256612;28;20153;-87
2023/01/31 00:03:44;;;;;;;19.08;4.53;;;;;;;1.04;100.00;102452.50;5256462;28;20069;-88
2023/01/31 00:06:24;;;;;;;32.58;4.93;;;;;;;1.00;100.00;102455.22;5257373;28;20056;-88
2023/01/31 00:08:56;;;;;;;25.48;4.95;;;;;;;0.88;100.00;102444.16;5256764;28;20029;-88
2023/01/31 00:11:29;;;;;;;21.38;5.03;;;;;;;0.83;100.00;102453.91;5241578;28;20034;-87
2023/01/31 00:14:03;;;;;;;31.42;6.65;;;;;;;0.93;100.00;102459.81;5254638;28;20052;-87
2023/01/31 00:16:34;;;;;;;25.20;5.00;;;;;;;1.08;100.00;102462.00;5259760;28;20073;-87
2023/01/31 00:19:06;;;;;;;25.33;5.03;;;;;;;1.01;100.00;102459.59;5257198;28;20104;-87
2023/01/31 00:21:40;;;;;;;29.40;5.30;;;;;;;1.09;100.00;102468.16;5259484;28;20026;-88
2023/01/31 00:24:13;;;;;;;21.63;4.93;;;;;;;1.00;100.00;102471.00;5256880;28;20025;-88
2023/01/31 00:26:44;;;;;;;24.33;5.72;;;;;;;1.09;100.00;102460.25;5260311;28;20033;-87
2023/01/31 00:29:16;;;;;;;29.17;6.30;;;;;;;1.10;100.00;102475.97;5259636;28;20025;-88
2023/01/31 00:31:47;;;;;;;28.48;5.32;;;;;;;1.12;100.00;102463.66;5255116;28;20375;-87
2023/01/31 00:34:18;;;;;;;25.48;5.82;;;;;;;1.16;100.00;102485.47;5261224;28;20049;-87
2023/01/31 00:36:50;;;;;;;23.92;5.57;;;;;;;1.21;100.00;102474.81;5256752;28;20121;-87
2023/01/31 00:39:21;;;;;;;28.23;5.40;;;;;;;1.20;100.00;102471.31;5257984;28;20316;-88
2023/01/31 00:41:52;;;;;;;24.23;5.18;;;;;;;1.16;100.00;102458.31;5258788;28;20033;-88
2023/01/31 00:44:24;;;;;;;23.88;5.82;;;;;;;1.13;100.00;102454.84;5254555;28;20115;-88
2023/01/31 00:46:55;;;;;;;31.20;6.15;;;;;;;1.22;100.00;102456.38;5256043;28;20034;-88
2023/01/31 00:49:26;;;;;;;29.27;6.55;;;;;;;1.15;100.00;102454.81;5239874;28;20022;-87
2023/01/31 00:51:58;;;;;;;28.95;5.43;;;;;;;1.22;100.00;102453.75;5257596;28;20441;-88
2023/01/31 00:54:29;;;;;;;29.88;6.90;;;;;;;1.29;100.00;102457.06;5258136;28;20060;-88
2023/01/31 00:57:00;;;;;;;27.98;6.93;;;;;;;1.21;100.00;102454.66;5270078;28;20022;-87
2023/01/31 00:59:31;;;;;;;31.63;5.85;;;;;;;1.20;100.00;102449.44;5269371;28;20079;-88
2023/01/31 01:02:03;;;;;;;25.60;5.75;;;;;;;1.30;100.00;102446.50;5282571;28;20045;-86
2023/01/31 01:04:34;;;;;;;23.63;6.65;;;;;;;1.35;100.00;102443.75;5259005;28;20071;-87
2023/01/31 01:07:05;;;;;;;21.13;5.32;;;;;;;1.44;100.00;102453.16;5266553;28;20466;-88
2023/01/31 01:09:37;;;;;;;18.52;5.25;;;;;;;1.46;100.00;102444.31;5260468;28;20168;-88
2023/01/31 01:12:08;;;;;;;32.95;8.65;;;;;;;1.41;100.00;102443.56;5262912;28;20080;-87
2023/01/31 01:14:39;;;;;;;27.45;5.95;;;;;;;1.45;100.00;102441.72;5243476;28;20064;-87
2023/01/31 01:17:11;;;;;;;30.50;7.30;;;;;;;1.39;100.00;102431.38;5262598;28;20029;-87
2023/01/31 01:19:42;;;;;;;30.33;6.53;;;;;;;1.41;100.00;102421.69;5237961;28;20124;-88
2023/01/31 01:22:15;;;;;;;28.23;6.45;;;;;;;1.39;100.00;102426.13;5257281;28;20112;-87
2023/01/31 01:24:46;;;;;;;30.13;6.97;;;;;;;1.40;100.00;102427.84;5256767;28;21407;-87
2023/01/31 01:27:17;;;;;;;29.60;6.90;;;;;;;1.39;100.00;102412.97;5257152;28;20355;-87
2023/01/31 01:29:49;;;;;;;28.95;6.10;;;;;;;1.39;100.00;102416.47;5257453;28;20034;-87
2023/01/31 01:32:20;;;;;;;25.05;6.72;;;;;;;1.46;100.00;102414.53;5256233;28;20088;-87
2023/01/31 01:34:51;;;;;;;25.65;7.28;;;;;;;1.38;100.00;102420.00;5258040;28;20029;-87
2023/01/31 01:37:23;;;;;;;34.40;7.85;;;;;;;1.45;100.00;102410.16;5255787;28;20029;-87
2023/01/31 01:39:54;;;;;;;27.27;8.02;;;;;;;1.47;100.00;102403.97;5257450;28;20040;-87
2023/01/31 01:42:26;;;;;;;26.33;7.88;;;;;;;1.46;100.00;102412.75;5254122;28;20030;-87
2023/01/31 01:44:59;;;;;;;35.47;9.25;;;;;;;1.50;100.00;102421.41;5266608;28;20187;-87
2023/01/31 01:47:54;;;;;;;30.35;8.65;;;;;;;1.52;100.00;102411.69;5255344;28;20029;-87
2023/01/31 01:50:35;;;;;;;28.80;8.68;;;;;;;1.56;100.00;102401.94;5274871;28;20028;-87
2023/01/31 01:53:19;;;;;;;31.30;9.07;;;;;;;1.58;100.00;102401.00;5275882;28;20127;-88
2023/01/31 01:56:02;;;;;;;34.58;8.25;;;;;;;1.58;100.00;102392.22;5271834;28;20084;-87
2023/01/31 01:58:47;;;;;;;28.20;8.02;;;;;;;1.53;100.00;102396.81;5275741;28;20042;-87
2023/01/31 02:01:19;;;;;;;37.85;8.57;;;;;;;1.47;100.00;102390.81;5276605;28;20160;-87
2023/01/31 02:03:52;;;;;;;30.05;8.50;;;;;;;1.46;100.00;102396.97;5281401;28;20037;-87
2023/01/31 02:06:23;;;;;;;31.30;8.35;;;;;;;1.42;100.00;102399.72;5277691;28;20033;-87
2023/01/31 02:08:55;;;;;;;34.03;9.27;;;;;;;1.42;100.00;102400.59;5280324;28;20040;-87
2023/01/31 02:11:30;;;;;;;31.08;8.88;;;;;;;1.40;100.00;102405.03;5273717;28;20096;-87
2023/01/31 02:14:07;;;;;;;37.08;9.48;;;;;;;1.39;100.00;102410.34;5271796;28;20478;-84
2023/01/31 02:16:38;;;;;;;35.05;9.18;;;;;;;1.32;100.00;102409.66;5276600;28;20041;-88
2023/01/31 02:19:38;;;;;;;35.10;9.27;;;;;;;1.32;100.00;102405.25;5258405;28;20074;-88
2023/01/31 02:22:55;;;;;;;39.22;10.20;;;;;;;1.36;100.00;102418.31;5247971;28;20865;-87
2023/01/31 02:25:54;;;;;;;38.00;10.20;;;;;;;1.35;100.00;102421.84;5233225;28;20044;-87
2023/01/31 02:28:40;;;;;;;39.20;10.43;;;;;;;1.35;100.00;102420.09;5273706;28;20021;-87
2023/01/31 02:32:01;;;;;;;37.97;10.10;;;;;;;1.35;100.00;102421.84;5271216;28;20102;-86
2023/01/31 02:34:57;;;;;;;41.20;10.60;;;;;;;1.30;100.00;102429.88;5218981;28;20056;-88
2023/01/31 02:37:38;;;;;;;38.97;10.98;;;;;;;1.30;100.00;102422.84;5272383;28;20021;-88
2023/01/31 02:40:43;;;;;;;36.67;10.88;;;;;;;1.33;100.00;102416.63;5273334;28;20032;-87
2023/01/31 02:43:32;;;;;;;40.55;14.07;;;;;;;1.37;100.00;102409.50;5272153;28;20040;-87
2023/01/31 02:46:13;;;;;;;42.30;12.52;;;;;;;1.44;100.00;102400.56;5245929;28;20445;-87
2023/01/31 02:48:58;;;;;;;35.28;13.48;;;;;;;1.49;100.00;102412.66;5265686;28;20907;-87
2023/01/31 02:51:40;;;;;;;43.72;13.85;;;;;;;1.53;100.00;102415.22;5274235;28;20025;-87
2023/01/31 02:54:17;;;;;;;39.28;12.38;;;;;;;1.56;100.00;102413.34;5274713;28;20033;-86
2023/01/31 02:56:49;;;;;;;40.10;13.93;;;;;;;1.59;100.00;102420.28;5274141;28;20114;-87
2023/01/31 02:59:26;;;;;;;39.78;12.63;;;;;;;1.63;100.00;102414.88;5252072;28;20091;-87
2023/01/31 03:02:01;;;;;;;40.75;13.63;;;;;;;1.66;100.00;102414.78;5275525;28;20037;-88
2023/01/31 03:04:35;;;;;;;35.20;12.75;;;;;;;1.67;100.00;102420.91;5276982;28;20033;-87
2023/01/31 03:07:21;;;;;;;46.90;14.70;;;;;;;1.74;100.00;102418.97;5254806;28;20534;-88
2023/01/31 03:10:08;;;;;;;39.05;15.38;;;;;;;1.79;100.00;102411.75;5272125;28;20040;-88
2023/01/31 03:13:13;;;;;;;32.08;13.05;;;;;;;1.83;100.00;102406.38;5272123;28;20025;-88
2023/01/31 03:19:15;;;;;;;40.38;15.40;;;;;;;1.84;100.00;102405.47;5277340;28;20033;-88
2023/01/31 03:22:15;;;;;;;38.38;13.73;;;;;;;1.88;100.00;102399.19;5272195;28;20029;-88
2023/01/31 03:24:49;;;;;;;51.58;16.20;;;;;;;1.91;100.00;102397.38;5276065;28;20037;-88
2023/01/31 03:27:22;;;;;;;36.85;14.63;;;;;;;1.92;100.00;102396.47;5273117;28;20033;-87
2023/01/31 03:30:00;;;;;;;41.33;15.77;;;;;;;1.96;100.00;102395.47;5283130;28;20028;-87
2023/01/31 03:32:38;;;;;;;42.03;15.98;;;;;;;1.94;100.00;102384.97;5304611;28;20032;-87
2023/01/31 03:35:11;;;;;;;40.33;14.93;;;;;;;1.95;100.00;102397.22;5306533;28;20041;-86
2023/01/31 03:37:48;;;;;;;55.97;17.65;;;;;;;1.97;100.00;102382.25;5305074;28;20018;-87
2023/01/31 03:40:29;;;;;;;47.97;17.73;;;;;;;1.98;100.00;102385.75;5306827;28;20409;-87
2023/01/31 03:43:13;;;;;;;49.55;16.38;;;;;;;2.05;100.00;102388.13;5289939;28;20036;-87
2023/01/31 03:45:46;;;;;;;42.90;18.13;;;;;;;2.10;100.00;102379.22;5303396;28;20457;-87
2023/01/31 03:48:21;;;;;;;50.83;19.02;;;;;;;2.10;100.00;102374.81;5300598;28;20053;-87
2023/01/31 03:50:57;;;;;;;40.97;16.92;;;;;;;2.15;100.00;102374.66;5304174;28;20005;-88
2023/01/31 03:53:34;;;;;;;46.50;17.35;;;;;;;2.20;100.00;102362.22;5298153;28;20036;-88
2023/01/31 03:56:15;;;;;;;46.30;18.88;;;;;;;2.22;100.00;102370.91;5297301;28;20024;-87
2023/01/31 03:58:56;;;;;;;45.15;19.25;;;;;;;2.26;100.00;102368.16;5289480;28;20020;-86
2023/01/31 04:01:33;;;;;;;50.33;18.67;;;;;;;2.34;100.00;102364.38;5289172;28;20033;-88
2023/01/31 04:04:17;;;;;;;48.00;17.42;;;;;;;2.35;100.00;102363.47;5290075;28;20025;-86
2023/01/31 04:06:48;;;;;;;43.22;19.27;;;;;;;2.38;100.00;102366.84;5272339;28;20052;-87
2023/01/31 04:09:20;;;;;;;36.33;16.55;;;;;;;2.35;100.00;102364.34;5285579;28;20025;-87
2023/01/31 04:11:51;;;;;;;40.60;17.33;;;;;;;2.36;100.00;102375.72;5277087;28;20112;-87
2023/01/31 04:14:22;;;;;;;46.80;18.73;;;;;;;2.27;100.00;102367.22;5273232;28;20064;-87
2023/01/31 04:16:54;;;;;;;40.13;15.73;;;;;;;2.29;100.00;102356.63;5279307;28;20047;-87
2023/01/31 04:19:25;;;;;;;51.60;18.73;;;;;;;2.24;100.00;102363.81;5274186;28;20024;-86
2023/01/31 04:21:56;;;;;;;50.67;18.20;;;;;;;2.29;100.00;102359.25;5260711;28;20017;-87
2023/01/31 04:24:28;;;;;;;47.30;19.17;;;;;;;2.25;100.00;102366.41;5279853;28;20055;-87
2023/01/31 04:26:59;;;;;;;41.10;15.90;;;;;;;2.20;100.00;102359.59;5279112;28;20021;-87
2023/01/31 04:29:30;;;;;;;48.13;17.70;;;;;;;2.23;100.00;102362.13;5260107;28;20025;-87
2023/01/31 04:32:02;;;;;;;54.60;19.92;;;;;;;2.23;100.00;102354.22;5275978;28;20080;-88
2023/01/31 04:34:33;;;;;;;40.45;16.83;;;;;;;2.25;100.00;102349.75;5281952;28;20088;-88
2023/01/31 04:37:04;;;;;;;45.00;17.10;;;;;;;2.19;100.00;102357.84;5275421;28;20025;-87
2023/01/31 04:39:36;;;;;;;41.67;18.80;;;;;;;2.17;100.00;102355.25;5278161;28;20024;-86
2023/01/31 04:42:07;;;;;;;39.60;20.17;;;;;;;2.11;100.00;102344.94;5279247;28;20009;-87
2023/01/31 04:44:38;;;;;;;46.83;18.27;;;;;;;2.08;100.00;102351.16;5289615;28;21107;-86
2023/01/31 04:47:09;;;;;;;44.03;17.17;;;;;;;2.05;100.00;102345.13;5281837;28;20120;-87
2023/01/31 04:49:42;;;;;;;43.08;16.42;;;;;;;2.03;100.00;102352.22;5262099;28;20084;-87
2023/01/31 04:52:14;;;;;;;44.92;16.58;;;;;;;2.00;100.00;102342.69;5275455;28;20030;-87
2023/01/31 04:54:45;;;;;;;41.05;17.70;;;;;;;1.97;100.00;102350.66;5278680;28;20371;-87
2023/01/31 04:57:16;;;;;;;44.50;18.08;;;;;;;1.98;100.00;102347.13;5275979;28;20107;-87
2023/01/31 04:59:49;;;;;;;43.42;18.08;;;;;;;1.97;100.00;102328.75;5274804;28;20043;-87
2023/01/31 05:02:22;;;;;;;47.63;19.58;;;;;;;1.98;100.00;102320.81;5266466;28;20139;-87
2023/01/31 05:04:54;;;;;;;46.92;19.73;;;;;;;2.03;100.00;102326.78;5257408;28;20379;-87
2023/01/31 05:07:25;;;;;;;45.90;19.23;;;;;;;2.07;100.00;102320.50;5270928;28;20040;-87
2023/01/31 05:09:56;;;;;;;47.90;19.58;;;;;;;2.15;100.00;102309.72;5276258;28;20052;-87
2023/01/31 05:12:28;;;;;;;43.17;19.13;;;;;;;2.22;100.00;102313.00;5276988;28;20037;-87
2023/01/31 05:15:00;;;;;;;41.22;18.25;;;;;;;2.21;100.00;102309.50;5276426;28;20561;-86
2023/01/31 05:17:32;;;;;;;48.55;18.60;;;;;;;2.34;100.00;102311.72;5279659;28;20025;-87
2023/01/31 05:20:05;;;;;;;48.47;19.95;;;;;;;2.34;100.00;102312.56;5280789;28;20037;-88
2023/01/31 05:22:36;;;;;;;38.05;17.52;;;;;;;2.39;100.00;102315.06;5257597;28;20052;-88
2023/01/31 05:25:07;;;;;;;43.45;18.23;;;;;;;2.48;100.00;102305.97;5279922;28;20506;-88
2023/01/31 05:27:39;;;;;;;38.17;16.42;;;;;;;2.45;100.00;102317.47;5275051;28;20017;-88
2023/01/31 05:30:11;;;;;;;40.53;16.48;;;;;;;2.47;100.00;102302.47;5276073;28;21842;-88
2023/01/31 05:32:44;;;;;;;31.80;14.73;;;;;;;2.48;100.00;102298.06;5273878;28;20104;-89
2023/01/31 05:35:16;;;;;;;46.03;18.05;;;;;;;2.49;100.00;102303.28;5277630;28;20058;-88
2023/01/31 05:37:52;;;;;;;35.15;15.50;;;;;;;2.53;100.00;102307.53;5272685;28;20058;-88
2023/01/31 05:40:24;;;;;;;37.70;16.33;;;;;;;2.53;100.00;102291.72;5275614;28;20021;-88
2023/01/31 05:42:56;;;;;;;34.47;15.35;;;;;;;2.53;100.00;102286.44;5277328;28;20482;-88
2023/01/31 05:45:28;;;;;;;28.58;14.43;;;;;;;2.55;100.00;102279.34;5277076;28;21016;-88
2023/01/31 05:47:59;;;;;;;33.78;13.82;;;;;;;2.48;100.00;102290.16;5278415;28;20108;-88
2023/01/31 05:50:30;;;;;;;38.83;15.38;;;;;;;2.45;100.00;102284.09;5278231;28;20501;-87
2023/01/31 05:53:02;;;;;;;33.17;13.85;;;;;;;2.46;100.00;102282.31;5273571;28;20022;-87
2023/01/31 05:55:33;;;;;;;37.40;14.55;;;;;;;2.54;100.00;102292.56;5272176;28;20095;-88
2023/01/31 05:58:05;;;;;;;35.83;14.02;;;;;;;2.56;100.00;102278.44;5276981;28;20035;-87
2023/01/31 06:00:36;;;;;;;39.15;14.48;;;;;;;2.60;100.00;102282.69;5274877;28;20494;-88
2023/01/31 06:03:08;;;;;;;35.53;14.45;;;;;;;2.64;100.00;102278.16;5281271;28;20036;-87
2023/01/31 06:05:40;;;;;;;35.15;13.07;;;;;;;2.66;100.00;102294.75;5299500;28;20098;-87
2023/01/31 06:08:11;;;;;;;29.92;13.85;;;;;;;2.66;100.00;102294.75;5276816;28;20025;-87
2023/01/31 06:10:43;;;;;;;31.23;12.85;;;;;;;2.71;100.00;102298.09;5299897;28;20064;-87
2023/01/31 06:13:14;;;;;;;32.95;12.88;;;;;;;2.72;100.00;102289.28;5291412;28;20105;-86
2023/01/31 06:15:48;;;;;;;34.90;12.52;;;;;;;2.75;100.00;102283.91;5291361;28;20021;-87
2023/01/31 06:18:19;;;;;;;32.70;12.60;;;;;;;2.72;100.00;102277.84;5277516;28;20039;-86
2023/01/31 06:20:51;;;;;;;31.23;12.43;;;;;;;2.76;100.00;102284.75;5279699;28;20021;-87
2023/01/31 06:23:23;;;;;;;32.72;11.52;;;;;;;2.78;100.00;102275.00;5273028;28;20048;-87
2023/01/31 06:25:54;;;;;;;27.80;11.35;;;;;;;2.81;100.00;102285.44;5273949;28;20388;-87
2023/01/31 06:28:26;;;;;;;31.30;12.45;;;;;;;2.77;100.00;102297.00;5253192;28;20032;-87
2023/01/31 06:30:57;;;;;;;30.05;10.82;;;;;;;2.82;100.00;102288.03;5270628;28;20058;-86
2023/01/31 06:33:28;;;;;;;25.17;11.35;;;;;;;2.83;100.00;102287.09;5253647;28;20406;-87
2023/01/31 06:36:00;;;;;;;30.30;10.85;;;;;;;2.81;100.00;102283.66;5268043;28;20029;-87
2023/01/31 06:38:32;;;;;;;33.15;10.68;;;;;;;2.88;100.00;102286.94;5277745;28;20104;-88
2023/01/31 06:41:03;;;;;;;30.23;10.85;;;;;;;2.92;100.00;102266.59;5275604;28;20029;-87
2023/01/31 06:43:34;;;;;;;32.25;10.55;;;;;;;2.93;100.00;102271.81;5274784;28;20041;-87
2023/01/31 06:46:06;;;;;;;25.77;11.00;;;;;;;2.96;100.00;102270.81;5276848;28;20053;-88
2023/01/31 06:48:37;;;;;;;30.02;10.40;;;;;;;2.94;100.00;102257.69;5277890;28;20512;-87
2023/01/31 06:51:09;;;;;;;26.63;9.60;;;;;;;2.99;100.00;102258.38;5277506;28;20029;-87
2023/01/31 06:53:40;;;;;;;24.42;9.75;;;;;;;3.02;100.00;102263.53;5273567;28;20083;-87
2023/01/31 06:56:11;;;;;;;30.63;9.68;;;;;;;3.05;100.00;102266.97;5275349;28;20037;-87
2023/01/31 06:58:43;;;;;;;25.42;10.70;;;;;;;3.07;100.00;102259.84;5277489;28;20079;-87
2023/01/31 07:01:14;;;;;;;23.40;9.13;;;;;;;3.08;100.00;102259.81;5272299;28;20029;-87
2023/01/31 07:03:46;;;;;;;36.08;10.63;;;;;;;3.08;100.00;102256.31;5272543;28;20731;-87
2023/01/31 07:06:19;;;;;;;23.75;10.27;;;;;;;3.07;100.00;102249.31;5275791;28;20466;-87
2023/01/31 07:08:50;;;;;;;23.95;10.02;;;;;;;3.14;100.00;102258.72;5260501;28;20545;-87
2023/01/31 07:11:21;;;;;;;26.13;9.35;;;;;;;3.08;100.00;102257.16;5280454;28;20033;-87
2023/01/31 07:13:53;;;;;;;24.75;9.95;;;;;;;3.14;100.00;102258.72;5278339;28;20029;-88
2023/01/31 07:16:25;;;;;;;25.77;9.70;;;;;;;3.14;100.00;102256.94;5278292;28;20200;-87
2023/01/31 07:18:56;;;;;;;24.45;9.85;;;;;;;3.17;100.00;102246.28;5262752;28;20033;-86
2023/01/31 07:21:28;;;;;;;23.55;9.20;;;;;;;3.20;100.00;102250.56;5286070;28;20036;-88
2023/01/31 07:23:59;;;;;;;28.65;8.80;;;;;;;3.30;100.00;102235.25;5279618;28;20033;-90
2023/01/31 07:26:31;;;;;;;24.63;8.98;;;;;;;3.39;100.00;102243.63;5269286;28;20025;-89
2023/01/31 07:29:02;;;;;;;22.10;9.02;;;;;;;3.42;100.00;102245.31;5267292;28;20373;-88
2023/01/31 07:31:33;;;;;;;22.38;8.18;;;;;;;3.48;100.00;102249.47;5284810;28;20433;-87
2023/01/31 07:34:05;;;;;;;21.70;7.95;;;;;;;3.57;100.00;102236.75;5286515;28;20029;-87
2023/01/31 07:36:36;;;;;;;25.67;7.72;;;;;;;3.63;100.00;102246.22;5269718;28;20466;-88
2023/01/31 07:39:08;;;;;;;25.05;9.18;;;;;;;3.70;100.00;102249.44;5247508;28;20018;-89
2023/01/31 07:41:39;;;;;;;19.08;7.47;;;;;;;3.73;100.00;102247.53;5284919;28;20021;-87
2023/01/31 07:44:10;;;;;;;25.17;8.13;;;;;;;3.76;100.00;102243.91;5284823;28;20103;-87
2023/01/31 07:46:41;;;;;;;26.38;9.60;;;;;;;3.79;100.00;102239.38;5286177;28;20021;-88
2023/01/31 07:49:13;;;;;;;20.58;8.27;;;;;;;3.85;100.00;102237.41;5306356;28;20023;-88
2023/01/31 07:51:44;;;;;;;24.10;7.72;;;;;;;3.83;100.00;102232.19;5303597;28;20428;-88
2023/01/31 07:54:16;;;;;;;25.05;8.40;;;;;;;3.87;100.00;102219.69;5272843;28;20024;-87
2023/01/31 07:56:47;;;;;;;29.75;8.63;;;;;;;3.86;100.00;102223.28;5293762;28;20060;-89
2023/01/31 07:59:18;;;;;;;20.30;7.70;;;;;;;3.89;100.00;102215.22;5275714;28;20013;-87
2023/01/31 08:04:40;;;;;;;22.17;8.07;;;;;;;3.88;100.00;102230.19;5285260;28;20040;-88
2023/01/31 08:07:11;;;;;;;25.40;8.70;;;;;;;3.87;100.00;102215.28;5267890;28;20108;-89
2023/01/31 08:09:45;;;;;;;20.20;8.98;;;;;;;3.87;100.00;102210.00;5283689;28;20091;-88
2023/01/31 08:12:17;;;;;;;22.55;7.20;;;;;;;3.89;100.00;102202.91;5263700;28;20497;-88
2023/01/31 08:14:48;;;;;;;25.98;7.85;;;;;;;3.96;100.00;102192.91;5280389;28;20029;-88
2023/01/31 08:17:20;;;;;;;20.48;7.35;;;;;;;4.03;100.00;102206.69;5280001;28;20083;-88
2023/01/31 08:19:51;;;;;;;21.05;8.07;;;;;;;4.01;100.00;102209.41;5277041;28;20060;-87
2023/01/31 08:22:22;;;;;;;25.83;7.97;;;;;;;4.08;100.00;102195.00;5281899;28;20036;-87
2023/01/31 08:24:54;;;;;;;20.33;7.97;;;;;;;4.14;100.00;102200.03;5276759;28;20064;-87
2023/01/31 08:27:25;;;;;;;21.83;7.43;;;;;;;4.24;100.00;102205.75;5283592;28;20025;-87
2023/01/31 08:29:56;;;;;;;20.98;7.63;;;;;;;4.37;100.00;102214.00;5283118;28;20083;-88
2023/01/31 08:32:27;;;;;;;19.52;7.05;;;;;;;4.45;100.00;102187.22;5282054;28;20033;-87
2023/01/31 08:34:59;;;;;;;21.75;7.13;;;;;;;4.45;100.00;102188.09;5280910;28;20103;-87
2023/01/31 08:37:31;;;;;;;23.23;7.38;;;;;;;4.53;100.00;102187.75;5285701;28;20053;-87
2023/01/31 08:40:03;;;;;;;19.50;7.47;;;;;;;4.66;100.00;102188.03;5286778;28;20021;-87
2023/01/31 08:42:34;;;;;;;21.85;8.05;;;;;;;4.64;100.00;102181.97;5295137;28;20052;-86
2023/01/31 08:45:06;;;;;;;16.90;5.60;;;;;;;4.69;100.00;102187.88;5306231;28;20038;-87
2023/01/31 08:47:39;;;;;;;18.35;6.30;;;;;;;4.72;100.00;102164.81;5301199;28;20081;-86
2023/01/31 08:50:10;;;;;;;21.10;7.57;;;;;;;4.71;100.00;102181.59;5281964;28;20021;-87
2023/01/31 08:52:42;;;;;;;19.23;6.05;;;;;;;4.71;100.00;102178.94;5282468;28;20437;-86
2023/01/31 08:55:13;;;;;;;21.25;5.90;;;;;;;4.76;100.00;102164.69;5285758;28;20029;-86
2023/01/31 08:57:45;;;;;;;22.88;7.20;;;;;;;4.74;100.00;102180.59;5290323;28;20013;-86
2023/01/31 09:00:17;;;;;;;21.73;7.38;;;;;;;4.79;100.00;102148.69;5291948;28;20029;-85
2023/01/31 09:02:56;;;;;;;21.58;7.05;;;;;;;4.97;100.00;102168.09;5290284;28;20382;-86
2023/01/31 09:05:30;;;;;;;24.02;6.95;;;;;;;4.97;100.00;102166.28;5252071;28;20030;-86
2023/01/31 09:08:02;;;;;;;18.60;6.10;;;;;;;4.92;100.00;102155.91;5263733;28;20025;-87
2023/01/31 09:10:33;;;;;;;17.70;6.68;;;;;;;5.11;100.00;102153.25;5271084;28;20025;-86
2023/01/31 09:13:04;;;;;;;16.98;6.55;;;;;;;5.24;100.00;102148.22;5277682;28;20033;-87
2023/01/31 09:15:35;;;;;;;22.40;7.15;;;;;;;5.22;100.00;102150.06;5281586;28;20036;-85
2023/01/31 09:18:07;;;;;;;26.13;7.30;;;;;;;5.20;100.00;102181.03;5283150;28;20055;-87
2023/01/31 09:20:38;;;;;;;17.25;5.88;;;;;;;5.23;100.00;102153.59;5277128;28;20156;-86
2023/01/31 09:23:09;;;;;;;13.77;5.63;;;;;;;5.20;100.00;102140.50;5263342;28;20036;-86
2023/01/31 09:25:41;;;;;;;18.95;6.13;;;;;;;5.33;100.00;102133.69;5283159;28;20025;-86
2023/01/31 09:28:12;;;;;;;20.98;6.00;;;;;;;5.43;100.00;102136.72;5282064;28;20025;-86
2023/01/31 09:30:43;;;;;;;25.35;6.40;;;;;;;5.71;100.00;102128.22;5283607;28;20132;-86
2023/01/31 09:33:15;;;;;;;18.42;6.20;;;;;;;6.02;100.00;102138.09;5280146;28;20075;-86
2023/01/31 09:35:57;;;;;;;15.55;5.63;;;;;;;6.32;100.00;102121.50;5274869;28;20044;-88
2023/01/31 09:38:28;;;;;;;16.30;5.10;;;;;;;6.58;100.00;102132.47;5275711;28;20038;-86
2023/01/31 09:41:04;;;;;;;25.05;6.32;;;;;;;6.63;100.00;102141.03;5278194;28;20025;-87
2023/01/31 09:43:42;;;;;;;15.77;5.88;;;;;;;6.54;100.00;102131.78;5254950;28;20394;-85
2023/01/31 09:46:17;;;;;;;16.40;6.10;;;;;;;6.47;100.00;102132.19;5257835;28;20049;-88
2023/01/31 09:48:51;;;;;;;16.80;6.22;;;;;;;6.66;100.00;102127.56;5250491;28;20053;-87
2023/01/31 09:51:23;;;;;;;16.23;5.20;;;;;;;7.08;100.00;102130.53;5242767;28;20037;-88
2023/01/31 09:53:56;;;;;;;20.92;5.13;;;;;;;7.40;100.00;102128.69;5254984;28;20033;-88
2023/01/31 09:56:41;;;;;;;17.20;5.13;;;;;;;7.46;100.00;102141.56;5263239;28;20010;-88
2023/01/31 09:59:20;;;;;;;14.73;4.85;;;;;;;7.35;100.00;102120.13;5241694;28;20098;-87
2023/01/31 10:02:18;;;;;;;15.80;5.00;;;;;;;7.31;100.00;102137.16;5250689;28;20026;-87
2023/01/31 10:05:18;;;;;;;15.73;5.90;;;;;;;7.20;100.00;102119.22;5252355;28;20049;-88
2023/01/31 10:08:31;;;;;;;16.20;6.03;;;;;;;6.96;100.00;102142.69;5260816;28;20049;-88
2023/01/31 10:11:09;;;;;;;20.15;6.43;;;;;;;6.60;100.00;102142.03;5240739;28;20037;-88
2023/01/31 10:14:05;;;;;;;23.73;6.32;;;;;;;6.57;100.00;102147.53;5243811;28;20028;-87
2023/01/31 10:16:52;;;;;;;15.98;6.13;;;;;;;6.55;100.00;102140.56;5220306;28;20432;-87
2023/01/31 10:19:35;;;;;;;21.13;6.28;;;;;;;6.44;100.00;102125.28;5255868;28;20157;-87
2023/01/31 10:22:11;;;;;;;21.50;7.90;;;;;;;6.32;100.00;102121.50;5245697;28;20425;-88
2023/01/31 10:24:48;;;;;;;17.90;8.10;;;;;;;6.26;100.00;102108.59;5254823;28;20083;-87
2023/01/31 10:27:41;;;;;;;23.15;8.52;;;;;;;6.33;100.00;102112.63;5247014;28;20029;-87
2023/01/31 10:30:45;;;;;;;23.02;9.52;;;;;;;6.30;100.00;102106.63;5240602;28;20054;-87
2023/01/31 10:33:22;;;;;;;20.40;9.07;;;;;;;6.29;100.00;102116.34;5223573;28;20041;-88
2023/01/31 10:35:56;;;;;;;21.90;9.65;;;;;;;6.29;100.00;102134.91;5261880;28;20471;-87
2023/01/31 10:38:38;;;;;;;24.48;11.73;;;;;;;6.27;100.00;102143.88;5269566;28;20017;-86
2023/01/31 10:41:17;;;;;;;24.58;11.55;;;;;;;6.36;100.00;102135.44;5239062;28;20056;-87
2023/01/31 10:44:31;;;;;;;25.30;12.95;;;;;;;6.45;100.00;102137.56;5247377;28;20410;-88
2023/01/31 10:47:11;;;;;;;25.15;12.35;;;;;;;6.52;100.00;102130.13;5267068;28;20065;-88
2023/01/31 10:49:48;;;;;;;25.63;13.90;;;;;;;6.70;100.00;102117.69;5258756;28;20057;-88
2023/01/31 10:52:30;;;;;;;28.67;15.40;;;;;;;6.76;100.00;102107.56;5263767;28;20029;-87
2023/01/31 10:55:24;;;;;;;28.35;13.77;;;;;;;6.88;100.00;102098.06;5264404;28;20036;-89
2023/01/31 10:57:57;;;;;;;26.00;14.02;;;;;;;6.66;100.00;102089.59;5267071;28;21653;-88
2023/01/31 11:00:31;;;;;;;24.55;13.60;;;;;;;6.78;100.00;102108.34;5267806;28;20359;-88
2023/01/31 11:03:03;;;;;;;26.67;14.43;;;;;;;6.68;100.00;102099.19;5262923;28;20041;-88
2023/01/31 11:05:39;;;;;;;23.13;13.77;;;;;;;6.80;100.00;102100.28;5264282;28;20107;-88
2023/01/31 11:08:25;;;;;;;25.05;12.13;;;;;;;7.11;100.00;102098.53;5264162;28;20485;-88
2023/01/31 11:11:02;;;;;;;29.03;13.70;;;;;;;7.20;100.00;102097.97;5246984;28;20022;-88
2023/01/31 11:13:34;;;;;;;24.05;11.85;;;;;;;7.10;100.00;102095.03;5275766;28;20085;-86
2023/01/31 11:16:08;;;;;;;24.90;12.45;;;;;;;7.11;100.00;102075.50;5289855;28;20021;-88
2023/01/31 11:18:46;;;;;;;23.75;12.35;;;;;;;7.18;100.00;102078.66;5284351;28;20089;-87
2023/01/31 11:21:22;;;;;;;19.95;10.93;;;;;;;7.23;100.00;102071.28;5288018;28;20454;-88
2023/01/31 11:24:01;;;;;;;23.10;11.80;;;;;;;7.37;100.00;102071.31;5282719;28;20026;-87
2023/01/31 11:26:36;;;;;;;23.52;11.60;;;;;;;7.44;100.00;102063.84;5270398;28;20026;-88
2023/01/31 11:29:19;;;;;;;22.27;10.63;;;;;;;7.63;100.00;102044.16;5243943;28;20033;-87
2023/01/31 11:31:51;;;;;;;20.80;10.63;;;;;;;7.65;100.00;102064.34;5259781;28;20029;-88
2023/01/31 11:34:25;;;;;;;20.58;10.98;;;;;;;7.65;100.00;102055.53;5266156;28;20056;-87
2023/01/31 11:37:13;;;;;;;22.50;11.32;;;;;;;7.65;100.00;102064.34;5269586;28;20321;-87
2023/01/31 11:40:21;;;;;;;19.30;9.75;;;;;;;7.65;100.00;102066.16;5254205;28;20049;-88
2023/01/31 11:42:58;;;;;;;21.55;10.07;;;;;;;7.41;100.00;102066.66;5265514;28;20029;-88
2023/01/31 11:45:33;;;;;;;24.05;10.85;;;;;;;7.49;100.00;102058.25;5257524;28;20487;-88
2023/01/31 11:48:21;;;;;;;23.98;9.77;;;;;;;7.46;100.00;102061.94;5251678;28;20516;-89
2023/01/31 11:51:01;;;;;;;22.83;9.18;;;;;;;7.39;100.00;102056.13;5264181;28;20033;-89
2023/01/31 11:53:47;;;;;;;18.25;8.98;;;;;;;7.25;100.00;102044.66;5250515;28;20068;-88
2023/01/31 11:56:34;;;;;;;19.08;8.73;;;;;;;7.08;100.00;102043.84;5252860;28;20379;-88
2023/01/31 11:59:08;;;;;;;19.30;8.98;;;;;;;7.09;100.00;102042.06;5260396;28;20498;-88